Time;durP1;ratioP1;P1;durP2;ratioP2;P2;SDS_P1;SDS_P2;PMS_P1;PMS_P2;Temp;Humidity;BMP_temperature;BMP_pressure;BME280_temperature;BME280_humidity;BME280_pressure;Samples;Min_cycle;Max_cycle;Signal;HPM_P1;HPM_P2
2022/01/06 00:02:15;;;;;;;;;;;3.20;99.90;;;;;;5014270;28;19921;-75
2022/01/06 00:04:42;;;;;;;;;;;3.10;99.90;;;;;;5014349;28;20353;-75
2022/01/06 00:07:08;;;;;;;;;;;3.00;99.90;;;;;;5029204;28;20103;-76
2022/01/06 00:09:33;;;;;;;;;;;2.90;99.90;;;;;;5034171;28;20281;-75
2022/01/06 00:11:59;;;;;;;;;;;2.80;99.90;;;;;;5021270;28;19929;-75
2022/01/06 00:24:49;;;;;;;;;;;2.30;99.90;;;;;;5050127;28;19929;-76
2022/01/06 00:27:15;;;;;;;;;;;2.20;99.90;;;;;;5024184;28;19928;-76
2022/01/06 00:29:40;;;;;;;;;;;2.10;99.90;;;;;;5028198;28;19933;-75
2022/01/06 00:32:06;;;;;;;;;;;2.00;99.90;;;;;;5023460;28;20278;-76
2022/01/06 00:34:32;;;;;;;;;;;1.90;99.90;;;;;;5033807;28;19920;-75
2022/01/06 00:36:57;;;;;;;;;;;1.80;99.90;;;;;;5023801;28;19921;-76
2022/01/06 00:39:27;;;;;;;;;;;1.80;99.90;;;;;;5014497;28;19921;-75
2022/01/06 00:41:56;;;;;;;;;;;1.70;99.90;;;;;;5030513;28;19925;-76
2022/01/06 00:44:21;;;;;;;;;;;1.70;99.90;;;;;;5014526;28;19925;-75
2022/01/06 00:50:09;;;;;;;;;;;1.60;99.90;;;;;;5053460;28;20454;-75
2022/01/06 00:52:35;;;;;;;;;;;1.60;99.90;;;;;;5018863;28;19928;-75
2022/01/06 00:55:00;;;;;;;;;;;1.50;99.90;;;;;;5017743;28;20365;-75
2022/01/06 00:57:26;;;;;;;;;;;1.50;99.90;;;;;;5031885;28;20344;-76
2022/01/06 00:59:51;;;;;;;;;;;1.50;99.90;;;;;;5037364;28;19927;-75
2022/01/06 01:02:17;;;;;;;;;;;1.50;99.90;;;;;;5037728;28;19921;-75
2022/01/06 01:04:42;;;;;;;;;;;1.60;99.90;;;;;;5037334;28;19921;-75
2022/01/06 01:07:08;;;;;;;;;;;1.70;99.90;;;;;;5034530;28;19921;-75
2022/01/06 01:09:34;;;;;;;;;;;1.90;99.90;;;;;;5037391;28;19970;-74
2022/01/06 01:12:02;;;;;;;;;;;1.90;99.90;;;;;;5024805;28;19976;-75
2022/01/06 01:14:31;;;;;;;;;;;1.90;99.90;;;;;;5016979;28;19928;-75
2022/01/06 01:16:59;;;;;;;;;;;1.90;99.90;;;;;;5026713;28;20379;-75
2022/01/06 01:19:25;;;;;;;;;;;1.80;99.90;;;;;;5036910;28;19921;-75
2022/01/06 01:21:51;;;;;;;;;;;1.80;99.90;;;;;;5018306;28;20301;-75
2022/01/06 01:24:17;;;;;;;;;;;1.80;99.90;;;;;;5017068;28;19929;-75
2022/01/06 01:26:42;;;;;;;;;;;1.80;99.90;;;;;;5024230;28;19968;-75
2022/01/06 01:29:13;;;;;;;;;;;1.80;99.90;;;;;;5036187;28;20002;-75
2022/01/06 01:31:44;;;;;;;;;;;1.80;99.90;;;;;;5036847;28;20499;-75
2022/01/06 01:34:12;;;;;;;;;;;1.70;99.90;;;;;;5036397;28;19925;-75
2022/01/06 01:36:37;;;;;;;;;;;1.70;99.90;;;;;;5035455;28;19947;-75
2022/01/06 01:39:03;;;;;;;;;;;1.70;99.90;;;;;;5028674;28;20007;-75
2022/01/06 01:41:29;;;;;;;;;;;1.60;99.90;;;;;;5017005;28;20382;-75
2022/01/06 01:43:55;;;;;;;;;;;1.60;99.90;;;;;;5016872;28;19929;-75
2022/01/06 01:46:30;;;;;;;;;;;1.60;99.90;;;;;;5021155;28;19921;-75
2022/01/06 01:49:15;;;;;;;;;;;1.50;99.90;;;;;;5036829;28;20391;-76
2022/01/06 01:51:41;;;;;;;;;;;1.60;99.90;;;;;;5036704;28;20012;-76
2022/01/06 01:54:06;;;;;;;;;;;1.50;99.90;;;;;;5035887;28;20012;-75
2022/01/06 01:56:32;;;;;;;;;;;1.40;99.90;;;;;;5028724;28;20056;-75
2022/01/06 01:58:58;;;;;;;;;;;1.40;99.90;;;;;;5016774;28;20008;-75
2022/01/06 02:01:23;;;;;;;;;;;1.40;99.90;;;;;;5024697;28;20376;-76
2022/01/06 02:03:49;;;;;;;;;;;1.40;99.90;;;;;;5017000;28;19925;-75
2022/01/06 02:06:17;;;;;;;;;;;1.30;99.90;;;;;;5022070;28;19921;-76
2022/01/06 02:08:43;;;;;;;;;;;1.20;99.90;;;;;;5034800;28;19950;-76
2022/01/06 02:11:09;;;;;;;;;;;1.20;99.90;;;;;;5016864;28;20040;-76
2022/01/06 02:13:44;;;;;;;;;;;1.10;99.90;;;;;;5016342;28;20388;-76
2022/01/06 02:16:09;;;;;;;;;;;1.10;99.90;;;;;;5021646;28;19921;-75
2022/01/06 02:18:35;;;;;;;;;;;1.10;99.90;;;;;;5025048;28;19932;-76
2022/01/06 02:21:00;;;;;;;;;;;1.10;99.90;;;;;;5030954;28;20433;-76
2022/01/06 02:23:31;;;;;;;;;;;1.10;99.90;;;;;;5036202;28;19921;-76
2022/01/06 02:25:56;;;;;;;;;;;1.10;99.90;;;;;;5032518;28;20012;-76
2022/01/06 02:28:22;;;;;;;;;;;1.10;99.90;;;;;;5026880;28;20016;-76
2022/01/06 02:30:51;;;;;;;;;;;1.10;99.90;;;;;;5035541;28;19978;-76
2022/01/06 02:33:16;;;;;;;;;;;1.10;99.90;;;;;;5035378;28;20296;-76
2022/01/06 02:35:42;;;;;;;;;;;1.00;99.90;;;;;;5033726;28;19936;-76
2022/01/06 02:38:08;;;;;;;;;;;1.00;99.90;;;;;;5029828;28;20418;-77
2022/01/06 02:40:34;;;;;;;;;;;0.90;99.90;;;;;;5035407;28;19927;-76
2022/01/06 02:43:01;;;;;;;;;;;0.90;99.90;;;;;;5033922;28;20373;-76
2022/01/06 02:45:27;;;;;;;;;;;0.90;99.90;;;;;;5065067;28;19922;-76
2022/01/06 02:47:53;;;;;;;;;;;0.80;99.90;;;;;;5015520;28;19921;-76
2022/01/06 02:50:19;;;;;;;;;;;0.80;99.90;;;;;;5016083;28;19979;-76
2022/01/06 02:52:44;;;;;;;;;;;0.80;99.90;;;;;;5035078;28;19921;-76
2022/01/06 02:55:12;;;;;;;;;;;0.80;99.90;;;;;;5031906;28;19971;-76
2022/01/06 02:57:38;;;;;;;;;;;0.70;99.90;;;;;;5015396;28;19968;-76
2022/01/06 03:00:11;;;;;;;;;;;0.70;99.90;;;;;;5016831;28;20014;-76
2022/01/06 03:02:36;;;;;;;;;;;0.70;99.90;;;;;;5031360;28;20043;-76
2022/01/06 03:05:02;;;;;;;;;;;0.70;99.90;;;;;;5015076;28;20395;-77
2022/01/06 03:07:31;;;;;;;;;;;0.70;99.90;;;;;;5035498;28;20200;-76
2022/01/06 03:09:58;;;;;;;;;;;0.70;99.90;;;;;;5035182;28;19929;-76
2022/01/06 03:12:29;;;;;;;;;;;0.70;99.90;;;;;;5035274;28;19920;-76
2022/01/06 03:14:55;;;;;;;;;;;0.70;99.90;;;;;;5022204;28;19928;-76
2022/01/06 03:17:20;;;;;;;;;;;0.70;99.90;;;;;;5041891;28;20305;-76
2022/01/06 03:19:46;;;;;;;;;;;0.70;99.90;;;;;;5015581;28;20435;-76
2022/01/06 03:22:13;;;;;;;;;;;0.70;99.90;;;;;;5033597;28;20023;-76
2022/01/06 03:24:39;;;;;;;;;;;0.60;99.90;;;;;;5035527;28;19904;-75
2022/01/06 03:27:08;;;;;;;;;;;0.60;99.90;;;;;;5017881;28;22274;-75
2022/01/06 03:29:36;;;;;;;;;;;0.50;99.90;;;;;;5015063;28;19991;-75
2022/01/06 03:32:02;;;;;;;;;;;0.50;99.90;;;;;;5017623;28;20384;-75
2022/01/06 03:34:31;;;;;;;;;;;0.40;99.90;;;;;;5034622;28;19921;-76
2022/01/06 03:36:57;;;;;;;;;;;0.30;99.90;;;;;;5032768;28;19947;-75
2022/01/06 03:39:23;;;;;;;;;;;0.30;99.90;;;;;;5034468;28;19979;-76
2022/01/06 03:41:49;;;;;;;;;;;0.30;99.90;;;;;;5020317;28;19925;-75
2022/01/06 03:44:14;;;;;;;;;;;0.30;99.90;;;;;;5034021;28;19960;-75
2022/01/06 03:46:42;;;;;;;;;;;0.20;99.90;;;;;;5021956;28;20336;-75
2022/01/06 03:49:08;;;;;;;;;;;0.10;99.90;;;;;;5014399;28;20016;-75
2022/01/06 03:51:33;;;;;;;;;;;0.10;99.90;;;;;;5014401;28;20004;-76
2022/01/06 03:53:59;;;;;;;;;;;0.10;99.90;;;;;;5014343;28;20016;-75
2022/01/06 03:56:25;;;;;;;;;;;0.00;99.90;;;;;;5019476;28;19921;-75
2022/01/06 03:58:50;;;;;;;;;;;0.00;99.90;;;;;;5014820;28;20015;-75
2022/01/06 04:01:16;;;;;;;;;;;0.00;99.90;;;;;;5014513;28;19921;-76
2022/01/06 04:03:44;;;;;;;;;;;0.00;99.90;;;;;;5014364;28;19921;-76
2022/01/06 04:06:10;;;;;;;;;;;0.00;99.90;;;;;;5021494;28;19925;-77
2022/01/06 04:08:36;;;;;;;;;;;-0.10;99.90;;;;;;5025845;28;20000;-75
2022/01/06 04:11:01;;;;;;;;;;;-0.10;99.90;;;;;;5014208;28;19925;-75
2022/01/06 04:13:27;;;;;;;;;;;-0.20;99.90;;;;;;5016244;28;20396;-75
2022/01/06 04:15:53;;;;;;;;;;;-0.20;99.90;;;;;;5028648;28;19920;-75
2022/01/06 04:18:18;;;;;;;;;;;-0.10;99.90;;;;;;5014540;28;20012;-75
2022/01/06 04:20:49;;;;;;;;;;;-0.20;99.90;;;;;;5014834;28;19968;-76
2022/01/06 04:23:14;;;;;;;;;;;-0.20;99.90;;;;;;5026532;28;19991;-75
2022/01/06 04:25:40;;;;;;;;;;;-0.30;99.90;;;;;;5034123;28;20389;-75
2022/01/06 04:28:06;;;;;;;;;;;-0.30;99.90;;;;;;5018156;28;19921;-75
2022/01/06 04:30:31;;;;;;;;;;;-0.30;99.90;;;;;;5022199;28;19925;-75
2022/01/06 04:32:57;;;;;;;;;;;-0.30;99.90;;;;;;5037584;28;20008;-76
2022/01/06 04:35:22;;;;;;;;;;;-0.40;99.90;;;;;;5036620;28;20301;-76
2022/01/06 04:37:49;;;;;;;;;;;-0.30;99.90;;;;;;5029933;28;20409;-75
2022/01/06 04:40:15;;;;;;;;;;;-0.40;99.90;;;;;;5018393;28;20380;-76
2022/01/06 04:42:43;;;;;;;;;;;-0.30;99.90;;;;;;5018300;28;19975;-76
2022/01/06 04:45:09;;;;;;;;;;;-0.40;99.90;;;;;;5025315;28;19940;-76
2022/01/06 04:47:35;;;;;;;;;;;-0.40;99.90;;;;;;5018959;28;19925;-77
2022/01/06 04:50:03;;;;;;;;;;;-0.40;99.90;;;;;;5017800;28;20337;-75
2022/01/06 04:52:29;;;;;;;;;;;-0.40;99.90;;;;;;5017905;28;20577;-75
2022/01/06 04:54:54;;;;;;;;;;;-0.50;99.90;;;;;;5022814;28;19932;-75
2022/01/06 04:57:23;;;;;;;;;;;-0.50;99.90;;;;;;5020559;28;20314;-75
2022/01/06 04:59:51;;;;;;;;;;;-0.50;99.90;;;;;;5018415;28;19965;-76
2022/01/06 05:02:17;;;;;;;;;;;-0.50;99.90;;;;;;5034074;28;19928;-76
2022/01/06 05:04:42;;;;;;;;;;;-0.60;99.90;;;;;;5037339;28;19975;-76
2022/01/06 05:07:08;;;;;;;;;;;-0.50;99.90;;;;;;5022788;28;19932;-76
2022/01/06 05:09:33;;;;;;;;;;;-0.60;99.90;;;;;;5027580;28;20015;-76
2022/01/06 05:12:05;;;;;;;;;;;-0.60;99.90;;;;;;5038786;28;20254;-76
2022/01/06 05:14:33;;;;;;;;;;;-0.60;99.90;;;;;;5023869;28;19921;-77
2022/01/06 05:17:00;;;;;;;;;;;-0.70;99.90;;;;;;5018081;28;20023;-76
2022/01/06 05:19:25;;;;;;;;;;;-0.60;99.90;;;;;;5034834;28;19921;-76
2022/01/06 05:21:52;;;;;;;;;;;-0.70;99.90;;;;;;5018409;28;19975;-76
2022/01/06 05:24:24;;;;;;;;;;;-0.70;99.90;;;;;;5028275;28;19921;-77
2022/01/06 05:26:50;;;;;;;;;;;-0.70;99.90;;;;;;5037757;28;19964;-76
2022/01/06 05:29:15;;;;;;;;;;;-0.80;99.90;;;;;;5038451;28;19928;-76
2022/01/06 05:31:44;;;;;;;;;;;-0.80;99.90;;;;;;5032343;28;19921;-76
2022/01/06 05:34:09;;;;;;;;;;;-0.80;99.90;;;;;;5028217;28;19925;-76
2022/01/06 05:36:35;;;;;;;;;;;-0.70;99.90;;;;;;5018177;28;19947;-76
2022/01/06 05:39:01;;;;;;;;;;;-0.80;99.90;;;;;;5018040;28;20030;-76
2022/01/06 05:41:26;;;;;;;;;;;-0.80;99.90;;;;;;5036810;28;19936;-76
2022/01/06 05:43:52;;;;;;;;;;;-0.80;99.90;;;;;;5029772;28;19968;-76
2022/01/06 05:46:23;;;;;;;;;;;-0.80;99.90;;;;;;5030435;28;20378;-76
2022/01/06 05:48:58;;;;;;;;;;;-0.80;99.90;;;;;;5038460;28;19928;-77
2022/01/06 05:51:23;;;;;;;;;;;-0.80;99.90;;;;;;5019979;28;19972;-76
2022/01/06 05:53:50;;;;;;;;;;;-0.90;99.90;;;;;;5029984;28;19999;-77
2022/01/06 05:56:16;;;;;;;;;;;-0.90;99.90;;;;;;5017588;28;20008;-76
2022/01/06 05:58:41;;;;;;;;;;;-0.90;99.90;;;;;;5017518;28;19979;-76
2022/01/06 06:01:09;;;;;;;;;;;-0.90;99.90;;;;;;5026744;28;19964;-76
2022/01/06 06:03:35;;;;;;;;;;;-0.90;99.90;;;;;;5031616;28;19936;-77
2022/01/06 06:06:01;;;;;;;;;;;-0.90;99.90;;;;;;5027712;28;19920;-76
2022/01/06 06:08:26;;;;;;;;;;;-1.00;99.90;;;;;;5036912;28;19924;-76
2022/01/06 06:10:57;;;;;;;;;;;-0.90;99.90;;;;;;5036876;28;19925;-76
2022/01/06 06:13:23;;;;;;;;;;;-0.90;99.90;;;;;;5034527;28;19924;-77
2022/01/06 06:15:49;;;;;;;;;;;-1.00;99.90;;;;;;5036327;28;19931;-76
2022/01/06 06:18:14;;;;;;;;;;;-1.00;99.90;;;;;;5026021;28;19921;-76
2022/01/06 06:20:43;;;;;;;;;;;-1.00;99.90;;;;;;5016608;28;20305;-76
2022/01/06 06:23:08;;;;;;;;;;;-1.00;99.90;;;;;;5018089;28;19944;-76
2022/01/06 06:25:36;;;;;;;;;;;-1.00;99.90;;;;;;5036209;28;20396;-76
2022/01/06 06:28:07;;;;;;;;;;;-1.00;99.90;;;;;;5036324;28;19924;-76
2022/01/06 06:30:33;;;;;;;;;;;-1.00;99.90;;;;;;5035717;28;19928;-76
2022/01/06 06:33:01;;;;;;;;;;;-1.00;99.90;;;;;;5030613;28;19932;-76
2022/01/06 06:35:27;;;;;;;;;;;-0.90;99.90;;;;;;5024307;28;20000;-76
2022/01/06 06:37:53;;;;;;;;;;;-0.90;99.90;;;;;;5036750;28;20304;-76
2022/01/06 06:40:22;;;;;;;;;;;-0.90;99.90;;;;;;5036144;28;20024;-76
2022/01/06 06:42:48;;;;;;;;;;;-0.90;99.90;;;;;;5034450;28;20028;-76
2022/01/06 06:45:16;;;;;;;;;;;-0.90;99.90;;;;;;5034398;28;19920;-76
2022/01/06 06:47:44;;;;;;;;;;;-0.90;99.90;;;;;;5032243;28;19927;-76
2022/01/06 06:50:12;;;;;;;;;;;-0.90;99.90;;;;;;5016605;28;20016;-77
2022/01/06 06:52:40;;;;;;;;;;;-0.90;99.90;;;;;;5015713;28;19927;-76
2022/01/06 06:55:06;;;;;;;;;;;-0.80;99.90;;;;;;5048071;28;20282;-77
2022/01/06 06:57:35;;;;;;;;;;;-0.90;99.90;;;;;;5016144;28;19987;-76
2022/01/06 07:00:04;;;;;;;;;;;-0.90;99.90;;;;;;5032838;28;20354;-76
2022/01/06 07:02:33;;;;;;;;;;;-0.90;99.90;;;;;;5033255;28;19925;-76
2022/01/06 07:04:59;;;;;;;;;;;-0.90;99.90;;;;;;5033336;28;19971;-76
2022/01/06 07:07:25;;;;;;;;;;;-0.90;99.90;;;;;;5034071;28;20419;-76
2022/01/06 07:09:51;;;;;;;;;;;-1.00;99.90;;;;;;5016363;28;20033;-76
2022/01/06 07:12:20;;;;;;;;;;;-0.90;99.90;;;;;;5019927;28;20381;-76
2022/01/06 07:14:45;;;;;;;;;;;-0.90;99.90;;;;;;5024562;28;19968;-76
2022/01/06 07:17:14;;;;;;;;;;;-1.00;99.90;;;;;;5051743;28;19928;-76
2022/01/06 07:19:39;;;;;;;;;;;-1.00;99.90;;;;;;5022569;28;19978;-76
2022/01/06 07:22:05;;;;;;;;;;;-1.10;99.90;;;;;;5023100;28;20265;-76
2022/01/06 07:24:36;;;;;;;;;;;-1.10;99.90;;;;;;5033458;28;19921;-76
2022/01/06 07:27:05;;;;;;;;;;;-1.10;99.90;;;;;;5015523;28;19921;-76
2022/01/06 07:29:31;;;;;;;;;;;-1.10;99.90;;;;;;5015316;28;19951;-76
2022/01/06 07:31:57;;;;;;;;;;;-1.10;99.90;;;;;;5015045;28;19928;-76
2022/01/06 07:34:22;;;;;;;;;;;-1.00;99.90;;;;;;5015436;28;19925;-76
2022/01/06 07:36:48;;;;;;;;;;;-1.00;99.90;;;;;;5032398;28;19931;-76
2022/01/06 07:39:13;;;;;;;;;;;-1.10;99.90;;;;;;5035043;28;19925;-76
2022/01/06 07:41:39;;;;;;;;;;;-1.20;99.90;;;;;;5034846;28;19925;-76
2022/01/06 07:44:07;;;;;;;;;;;-1.10;99.90;;;;;;5025110;28;20353;-76
2022/01/06 07:46:34;;;;;;;;;;;-1.10;99.90;;;;;;5031025;28;19921;-76
2022/01/06 07:48:59;;;;;;;;;;;-1.00;99.90;;;;;;5023610;28;20396;-76
2022/01/06 07:51:28;;;;;;;;;;;-1.00;99.90;;;;;;5031177;28;19980;-76
2022/01/06 07:53:54;;;;;;;;;;;-1.10;99.90;;;;;;5014590;28;19927;-76
2022/01/06 07:56:23;;;;;;;;;;;-1.10;99.90;;;;;;5032110;28;19944;-76
2022/01/06 07:58:51;;;;;;;;;;;-1.10;99.90;;;;;;5030354;28;20388;-76
2022/01/06 08:01:17;;;;;;;;;;;-1.10;99.90;;;;;;5014830;28;19921;-76
2022/01/06 08:03:43;;;;;;;;;;;-1.10;99.90;;;;;;5015163;28;19928;-76
2022/01/06 08:06:09;;;;;;;;;;;-1.10;99.90;;;;;;5015686;28;19921;-76
2022/01/06 08:08:35;;;;;;;;;;;-1.10;99.90;;;;;;5014728;28;20303;-76
2022/01/06 08:11:01;;;;;;;;;;;-1.00;99.90;;;;;;5023757;28;19925;-76
2022/01/06 08:13:27;;;;;;;;;;;-1.10;99.90;;;;;;5032845;28;20278;-76
2022/01/06 08:15:52;;;;;;;;;;;-1.10;99.90;;;;;;5014371;28;19921;-76
2022/01/06 08:18:18;;;;;;;;;;;-1.10;99.90;;;;;;5030760;28;20308;-76
2022/01/06 08:20:43;;;;;;;;;;;-1.00;99.90;;;;;;5015306;28;20311;-76
2022/01/06 08:23:09;;;;;;;;;;;-1.00;99.90;;;;;;5032904;28;20017;-76
2022/01/06 08:25:35;;;;;;;;;;;-1.00;99.90;;;;;;5034040;28;19924;-76
2022/01/06 08:28:01;;;;;;;;;;;-1.00;99.90;;;;;;5033989;28;19921;-76
2022/01/06 08:30:26;;;;;;;;;;;-0.90;99.90;;;;;;5023519;28;19932;-76
2022/01/06 08:32:52;;;;;;;;;;;-0.90;99.90;;;;;;5018308;28;20142;-77
2022/01/06 08:35:18;;;;;;;;;;;-0.90;99.90;;;;;;5032899;28;20032;-78
2022/01/06 08:37:44;;;;;;;;;;;-0.90;99.90;;;;;;5034616;28;20364;-77
2022/01/06 08:40:12;;;;;;;;;;;-0.80;99.90;;;;;;5024551;28;19984;-76
2022/01/06 08:42:38;;;;;;;;;;;-0.80;99.90;;;;;;5019937;28;20393;-75
2022/01/06 08:45:04;;;;;;;;;;;-0.70;99.90;;;;;;5014476;28;19928;-76
2022/01/06 08:47:30;;;;;;;;;;;-0.60;99.90;;;;;;5023795;28;20389;-76
2022/01/06 08:49:56;;;;;;;;;;;-0.50;99.90;;;;;;5021984;28;19924;-78
2022/01/06 08:52:22;;;;;;;;;;;-0.40;99.90;;;;;;5022986;28;20015;-76
2022/01/06 08:54:48;;;;;;;;;;;-0.30;99.90;;;;;;5033576;28;20015;-76
2022/01/06 08:57:13;;;;;;;;;;;-0.30;99.90;;;;;;5027945;28;20023;-76
2022/01/06 08:59:39;;;;;;;;;;;-0.20;99.90;;;;;;5034682;28;19925;-76
2022/01/06 09:02:07;;;;;;;;;;;-0.20;99.90;;;;;;5020927;28;20331;-76
2022/01/06 09:04:33;;;;;;;;;;;-0.10;99.90;;;;;;5045766;28;19920;-76
2022/01/06 09:06:58;;;;;;;;;;;-0.10;99.90;;;;;;5041526;28;19969;-76
2022/01/06 09:09:24;;;;;;;;;;;0.00;99.90;;;;;;5018844;28;19972;-76
2022/01/06 09:11:52;;;;;;;;;;;0.10;99.90;;;;;;5033705;28;19943;-77
2022/01/06 09:14:18;;;;;;;;;;;0.10;99.90;;;;;;5021510;28;19929;-77
2022/01/06 09:16:46;;;;;;;;;;;0.20;99.90;;;;;;5050137;28;20284;-78
2022/01/06 09:19:13;;;;;;;;;;;0.30;99.90;;;;;;5038466;28;20430;-78
2022/01/06 09:21:43;;;;;;;;;;;0.40;99.90;;;;;;5037011;28;19920;-78
2022/01/06 09:24:12;;;;;;;;;;;0.40;99.90;;;;;;5017693;28;19927;-78
2022/01/06 09:26:37;;;;;;;;;;;0.60;99.90;;;;;;5034053;23;19924;-76
2022/01/06 09:29:04;;;;;;;;;;;0.60;99.90;;;;;;5019560;28;20614;-76
2022/01/06 09:31:29;;;;;;;;;;;0.70;99.90;;;;;;5050090;28;20388;-76
2022/01/06 09:33:55;;;;;;;;;;;0.80;99.90;;;;;;5036342;28;19931;-76
2022/01/06 09:36:20;;;;;;;;;;;0.80;99.90;;;;;;5021953;28;20020;-76
2022/01/06 09:38:46;;;;;;;;;;;0.90;99.90;;;;;;5000747;28;19921;-77
2022/01/06 09:41:12;;;;;;;;;;;1.00;99.90;;;;;;5016482;28;19921;-77
2022/01/06 09:43:38;;;;;;;;;;;1.00;99.90;;;;;;5032017;28;19960;-79
2022/01/06 09:46:06;;;;;;;;;;;1.10;99.90;;;;;;5015951;28;19921;-79
2022/01/06 09:48:33;;;;;;;;;;;1.10;99.90;;;;;;5016645;28;20270;-79
2022/01/06 09:50:59;;;;;;;;;;;1.20;99.90;;;;;;5015834;28;20050;-79
2022/01/06 09:53:26;;;;;;;;;;;1.30;99.90;;;;;;5031999;28;19968;-74
2022/01/06 09:55:51;;;;;;;;;;;1.50;99.90;;;;;;5007993;28;19921;-76
2022/01/06 09:58:23;;;;;;;;;;;1.60;99.90;;;;;;5017632;28;20381;-76
2022/01/06 10:00:49;;;;;;;;;;;1.60;99.90;;;;;;5017614;28;19929;-76
2022/01/06 10:03:15;;;;;;;;;;;1.80;99.90;;;;;;5016108;28;20385;-76
2022/01/06 10:05:45;;;;;;;;;;;1.80;99.90;;;;;;5015645;28;19928;-76
2022/01/06 10:08:11;;;;;;;;;;;1.90;99.90;;;;;;5017019;28;19964;-75
2022/01/06 10:10:37;;;;;;;;;;;2.00;99.90;;;;;;5014126;28;20432;-75
2022/01/06 10:13:08;;;;;;;;;;;2.00;99.90;;;;;;5015086;28;19925;-75
2022/01/06 10:15:38;;;;;;;;;;;2.10;99.90;;;;;;5016558;28;19921;-75
2022/01/06 10:18:11;;;;;;;;;;;2.20;99.90;;;;;;5015961;28;19944;-75
2022/01/06 10:20:36;;;;;;;;;;;2.20;99.90;;;;;;5015819;28;20377;-75
2022/01/06 10:23:08;;;;;;;;;;;2.30;99.90;;;;;;5014694;28;19944;-75
2022/01/06 10:25:38;;;;;;;;;;;2.40;99.90;;;;;;5048938;28;20585;-75
2022/01/06 10:28:13;;;;;;;;;;;2.40;99.90;;;;;;5015916;28;20425;-75
2022/01/06 10:30:47;;;;;;;;;;;2.50;99.90;;;;;;5016251;28;20443;-75
2022/01/06 10:33:14;;;;;;;;;;;2.60;99.90;;;;;;4998192;28;19925;-75
2022/01/06 10:35:39;;;;;;;;;;;2.60;99.90;;;;;;5011244;28;19976;-75
2022/01/06 10:38:04;;;;;;;;;;;2.60;99.90;;;;;;5015958;28;20393;-75
2022/01/06 10:40:30;;;;;;;;;;;2.70;99.90;;;;;;5016000;28;20424;-75
2022/01/06 10:43:05;;;;;;;;;;;2.80;99.90;;;;;;5012248;28;19921;-75
2022/01/06 10:45:31;;;;;;;;;;;2.80;99.90;;;;;;4998549;28;19929;-75
2022/01/06 10:47:57;;;;;;;;;;;2.90;99.90;;;;;;5015785;28;19927;-75
2022/01/06 10:50:24;;;;;;;;;;;3.00;99.90;;;;;;5015215;28;19932;-75
2022/01/06 10:52:54;;;;;;;;;;;3.10;99.90;;;;;;5014820;28;19974;-75
2022/01/06 10:55:21;;;;;;;;;;;3.20;99.90;;;;;;5015118;28;19929;-75
2022/01/06 10:58:04;;;;;;;;;;;3.20;99.90;;;;;;5015486;28;20346;-75
2022/01/06 11:00:37;;;;;;;;;;;3.30;99.90;;;;;;4998420;28;19928;-75
2022/01/06 11:03:07;;;;;;;;;;;3.40;99.90;;;;;;4998171;28;19921;-75
2022/01/06 11:05:36;;;;;;;;;;;3.50;99.90;;;;;;5014438;28;19928;-75
2022/01/06 11:08:03;;;;;;;;;;;3.50;99.90;;;;;;5015011;28;19960;-74
2022/01/06 11:10:29;;;;;;;;;;;3.60;99.90;;;;;;5015284;28;20305;-75
2022/01/06 11:12:55;;;;;;;;;;;3.70;99.90;;;;;;5015071;28;20227;-75
2022/01/06 11:15:20;;;;;;;;;;;3.70;99.90;;;;;;5015020;28;20435;-75
2022/01/06 11:17:47;;;;;;;;;;;3.80;99.90;;;;;;4997836;28;20269;-77
2022/01/06 11:20:13;;;;;;;;;;;3.90;99.90;;;;;;5014947;28;19960;-75
2022/01/06 11:22:47;;;;;;;;;;;4.00;99.90;;;;;;5015163;28;19947;-76
2022/01/06 11:25:13;;;;;;;;;;;4.20;99.90;;;;;;5031492;28;19951;-74
2022/01/06 11:27:38;;;;;;;;;;;4.50;99.90;;;;;;5014745;28;20416;-75
2022/01/06 11:30:14;;;;;;;;;;;5.00;99.90;;;;;;5014313;28;20072;-75
2022/01/06 11:32:41;;;;;;;;;;;5.60;99.90;;;;;;5014234;28;19921;-75
2022/01/06 11:35:11;;;;;;;;;;;6.50;99.90;;;;;;4998090;28;19975;-75
2022/01/06 11:37:43;;;;;;;;;;;7.10;99.90;;;;;;4998087;28;20037;-75
2022/01/06 11:40:09;;;;;;;;;;;8.00;99.90;;;;;;5030937;28;20381;-75
2022/01/06 11:42:35;;;;;;;;;;;8.60;99.90;;;;;;5014660;28;19932;-75
2022/01/06 11:45:02;;;;;;;;;;;9.10;99.90;;;;;;5014556;28;19956;-76
2022/01/06 11:47:36;;;;;;;;;;;9.60;99.90;;;;;;5014456;28;19921;-76
2022/01/06 11:50:24;;;;;;;;;;;10.10;99.90;;;;;;5007174;28;20313;-76
2022/01/06 11:52:58;;;;;;;;;;;10.50;99.90;;;;;;5012526;28;19928;-76
2022/01/06 11:55:24;;;;;;;;;;;10.80;99.90;;;;;;5001809;28;19927;-76
2022/01/06 11:57:50;;;;;;;;;;;11.00;99.90;;;;;;5027769;28;19928;-76
2022/01/06 12:00:18;;;;;;;;;;;11.30;99.90;;;;;;5039782;28;19921;-76
2022/01/06 12:02:54;;;;;;;;;;;11.50;99.90;;;;;;5047296;28;19922;-76
2022/01/06 12:05:20;;;;;;;;;;;11.70;99.90;;;;;;5047734;28;19990;-76
2022/01/06 12:07:50;;;;;;;;;;;12.00;99.90;;;;;;5014208;28;20389;-76
2022/01/06 12:10:15;;;;;;;;;;;12.30;99.90;;;;;;5010961;28;19981;-76
2022/01/06 12:12:41;;;;;;;;;;;12.70;99.90;;;;;;5039798;28;19957;-76
2022/01/06 12:15:11;;;;;;;;;;;12.90;99.90;;;;;;4998027;28;19967;-76
2022/01/06 12:17:37;;;;;;;;;;;13.00;99.90;;;;;;4997769;28;20012;-76
2022/01/06 12:20:04;;;;;;;;;;;13.00;99.90;;;;;;4997374;28;19964;-76
2022/01/06 12:22:29;;;;;;;;;;;13.00;99.90;;;;;;5045207;28;19928;-75
2022/01/06 12:25:03;;;;;;;;;;;13.20;99.90;;;;;;5013859;28;19921;-75
2022/01/06 12:27:29;;;;;;;;;;;13.30;99.90;;;;;;5047060;28;20068;-74
2022/01/06 12:29:56;;;;;;;;;;;13.50;99.90;;;;;;5046717;28;19925;-74
2022/01/06 12:32:21;;;;;;;;;;;13.50;99.90;;;;;;5047163;28;19947;-74
2022/01/06 12:34:51;;;;;;;;;;;13.50;99.90;;;;;;5013830;28;19933;-74
2022/01/06 12:37:23;;;;;;;;;;;13.50;99.90;;;;;;4998098;28;20292;-74
2022/01/06 12:39:49;;;;;;;;;;;13.30;99.90;;;;;;5013926;28;19933;-74
2022/01/06 12:42:14;;;;;;;;;;;13.20;99.90;;;;;;5014024;28;19921;-74
2022/01/06 12:44:40;;;;;;;;;;;13.40;99.90;;;;;;5014391;28;20300;-74
2022/01/06 12:47:05;;;;;;;;;;;13.50;99.70;;;;;;5046369;28;19921;-76
2022/01/06 12:49:34;;;;;;;;;;;13.60;99.90;;;;;;5015161;28;20385;-75
2022/01/06 12:52:03;;;;;;;;;;;13.40;99.90;;;;;;4997741;28;19928;-75
2022/01/06 12:54:30;;;;;;;;;;;13.10;99.90;;;;;;5041286;28;19972;-75
2022/01/06 12:56:57;;;;;;;;;;;12.90;99.90;;;;;;5001118;28;19925;-75
2022/01/06 12:59:27;;;;;;;;;;;12.70;99.90;;;;;;5017116;28;20016;-75
2022/01/06 13:01:54;;;;;;;;;;;12.30;97.50;;;;;;5016451;28;19921;-75
2022/01/06 13:04:26;;;;;;;;;;;11.90;99.80;;;;;;5017505;28;19937;-76
2022/01/06 13:06:53;;;;;;;;;;;11.40;99.90;;;;;;5016539;28;19921;-75
2022/01/06 13:09:19;;;;;;;;;;;10.90;99.90;;;;;;5017922;28;19932;-75
2022/01/06 13:11:48;;;;;;;;;;;10.30;99.90;;;;;;5033272;28;19933;-75
2022/01/06 13:14:43;;;;;;;;;;;9.80;99.90;;;;;;5033557;28;19971;-75
2022/01/06 13:17:19;;;;;;;;;;;9.30;99.90;;;;;;4996849;28;19972;-75
2022/01/06 13:20:00;;;;;;;;;;;8.70;99.90;;;;;;5000560;28;20373;-75
2022/01/06 13:22:48;;;;;;;;;;;8.20;99.90;;;;;;5013373;28;19921;-75
2022/01/06 13:25:14;;;;;;;;;;;7.80;99.90;;;;;;5016110;28;19921;-75
2022/01/06 13:27:40;;;;;;;;;;;7.50;99.90;;;;;;5016082;28;20269;-75
2022/01/06 13:30:07;;;;;;;;;;;7.30;99.90;;;;;;5016028;28;19925;-75
2022/01/06 13:32:33;;;;;;;;;;;7.10;99.90;;;;;;5047480;28;20020;-75
2022/01/06 13:35:04;;;;;;;;;;;7.00;99.90;;;;;;4998436;28;20008;-75
2022/01/06 13:37:30;;;;;;;;;;;6.90;99.90;;;;;;5014942;28;19928;-75
2022/01/06 13:40:00;;;;;;;;;;;6.80;99.90;;;;;;5016889;28;20278;-75
2022/01/06 13:42:28;;;;;;;;;;;6.70;99.90;;;;;;5049938;28;19925;-75
2022/01/06 13:45:00;;;;;;;;;;;6.80;99.90;;;;;;4998839;28;20020;-75
2022/01/06 13:47:33;;;;;;;;;;;6.80;99.90;;;;;;5004200;28;19921;-75
2022/01/06 13:52:47;;;;;;;;;;;6.70;99.90;;;;;;5016367;28;20408;-74
2022/01/06 13:55:16;;;;;;;;;;;6.50;99.90;;;;;;5049414;28;19957;-74
2022/01/06 13:57:41;;;;;;;;;;;6.30;99.90;;;;;;5026882;28;19968;-75
2022/01/06 14:00:08;;;;;;;;;;;6.20;99.90;;;;;;5048566;28;19975;-75
2022/01/06 14:02:33;;;;;;;;;;;6.00;99.90;;;;;;5033064;28;19964;-75
2022/01/06 14:05:06;;;;;;;;;;;5.90;99.90;;;;;;4999811;28;19975;-75
2022/01/06 14:07:31;;;;;;;;;;;5.80;99.90;;;;;;5016156;28;19927;-75
2022/01/06 14:09:56;;;;;;;;;;;5.70;99.90;;;;;;5049161;28;20293;-75
2022/01/06 14:12:22;;;;;;;;;;;5.60;99.90;;;;;;5016032;28;20365;-75
2022/01/06 14:14:47;;;;;;;;;;;5.60;99.90;;;;;;4999143;28;20008;-76
2022/01/06 14:17:13;;;;;;;;;;;5.50;99.90;;;;;;5053923;28;20347;-75
2022/01/06 14:19:40;;;;;;;;;;;5.50;99.90;;;;;;5049477;28;20060;-75
2022/01/06 14:22:06;;;;;;;;;;;5.40;99.90;;;;;;5016173;28;19921;-75
2022/01/06 14:24:33;;;;;;;;;;;5.30;99.90;;;;;;4998758;28;20015;-76
2022/01/06 14:26:59;;;;;;;;;;;5.30;99.90;;;;;;5018443;28;19933;-75
2022/01/06 14:29:25;;;;;;;;;;;5.30;99.90;;;;;;5048395;28;19929;-76
2022/01/06 14:31:51;;;;;;;;;;;5.20;99.90;;;;;;5048634;28;19979;-75
2022/01/06 14:34:16;;;;;;;;;;;5.20;99.90;;;;;;5031787;28;20024;-76
2022/01/06 14:36:42;;;;;;;;;;;5.30;99.90;;;;;;5048810;28;20358;-76
2022/01/06 14:39:07;;;;;;;;;;;5.30;99.90;;;;;;5004723;28;19921;-76
2022/01/06 14:41:33;;;;;;;;;;;5.30;99.90;;;;;;5048922;28;20408;-76